createdAt,value
2019-02-16T00:00:03.391Z,47.75
2019-02-16T00:01:03.353Z,47.75
2019-02-16T00:02:03.340Z,47.96
2019-02-16T00:03:03.329Z,47.75
2019-02-16T00:04:03.307Z,47.75
2019-02-16T00:05:03.347Z,47.96
2019-02-16T00:06:03.304Z,47.96
2019-02-16T00:07:03.278Z,48.05
2019-02-16T00:08:03.282Z,48.16
2019-02-16T00:09:03.276Z,48.16
2019-02-16T00:10:03.248Z,48.16
2019-02-16T00:11:03.171Z,47.85
2019-02-16T00:12:03.231Z,47.96
2019-02-16T00:13:03.221Z,47.85
2019-02-16T00:14:03.207Z,46.95
2019-02-16T00:15:03.187Z,47.65
2019-02-16T00:16:03.221Z,47.55
2019-02-16T00:17:03.174Z,48.16
2019-02-16T00:18:03.163Z,47.85
2019-02-16T00:19:03.074Z,47.75
2019-02-16T00:20:03.035Z,47.75
2019-02-16T00:21:04.302Z,47.96
2019-02-16T00:22:03.074Z,47.65
2019-02-16T00:23:03.012Z,47.55
2019-02-16T00:24:02.999Z,47.75
2019-02-16T00:25:03.001Z,47.85
2019-02-16T00:26:02.980Z,47.96
2019-02-16T00:27:02.950Z,47.55
2019-02-16T00:28:02.991Z,47.75
2019-02-16T00:29:03.039Z,47.55
2019-02-16T00:30:02.927Z,47.55
2019-02-16T00:31:02.931Z,47.96
2019-02-16T00:32:03.013Z,47.96
2019-02-16T00:33:02.998Z,48.05
2019-02-16T00:34:03.026Z,47.85
2019-02-16T00:35:02.872Z,47.75
2019-02-16T00:36:02.864Z,48.05
2019-02-16T00:37:02.848Z,48.05
2019-02-16T00:38:02.841Z,48.05
2019-02-16T00:39:02.836Z,48.05
2019-02-16T00:40:02.965Z,47.65
2019-02-16T00:41:02.803Z,47.85
2019-02-16T00:42:02.888Z,47.55
2019-02-16T00:43:02.877Z,47.75
2019-02-16T00:44:02.881Z,47.85
2019-02-16T00:45:02.864Z,47.75
2019-02-16T00:46:02.877Z,47.15
2019-02-16T00:47:02.883Z,48.05
2019-02-16T00:48:02.853Z,48.16
2019-02-16T00:49:02.813Z,47.65
2019-02-16T00:50:02.847Z,47.25
2019-02-16T00:51:02.789Z,47.15
2019-02-16T00:52:02.775Z,47.15
2019-02-16T00:53:02.832Z,47.75
2019-02-16T00:54:02.758Z,47.96
2019-02-16T00:55:02.758Z,47.35
2019-02-16T00:56:02.737Z,47.85
2019-02-16T00:57:02.734Z,47.45
2019-02-16T00:58:02.721Z,47.75
2019-02-16T00:59:02.762Z,47.25
2019-02-16T01:00:02.701Z,47.75
2019-02-16T01:01:02.691Z,48.16
2019-02-16T01:02:02.666Z,48.05
2019-02-16T01:03:02.661Z,47.35
2019-02-16T01:04:02.699Z,47.65
2019-02-16T01:05:02.676Z,47.75
2019-02-16T01:06:02.636Z,47.35
2019-02-16T01:07:02.610Z,47.25
2019-02-16T01:08:02.619Z,47.35
2019-02-16T01:09:02.619Z,47.25
2019-02-16T01:10:02.484Z,47.25
2019-02-16T01:11:02.521Z,47.25
2019-02-16T01:12:02.554Z,47.65
2019-02-16T01:13:02.542Z,47.35
2019-02-16T01:14:02.532Z,47.25
2019-02-16T01:15:02.534Z,47.27
2019-02-16T01:16:02.523Z,47.05
2019-02-16T01:17:02.549Z,46.95
2019-02-16T01:18:02.489Z,47.17
2019-02-16T01:19:02.472Z,47.25
2019-02-16T01:20:02.476Z,47.25
2019-02-16T01:21:02.455Z,47.55
2019-02-16T01:22:02.441Z,47.25
2019-02-16T01:23:02.492Z,47.45
2019-02-16T01:24:02.428Z,47.45
2019-02-16T01:25:02.414Z,47.45
2019-02-16T01:26:02.310Z,46.85
2019-02-16T01:27:02.307Z,46.65
2019-02-16T01:28:02.390Z,47.35
2019-02-16T01:29:02.395Z,47.15
2019-02-16T01:30:02.410Z,47.15
2019-02-16T01:31:02.346Z,47.65
2019-02-16T01:32:02.338Z,47.27
2019-02-16T01:33:02.343Z,47.65
2019-02-16T01:34:02.314Z,47.17
2019-02-16T01:35:02.346Z,47.15
2019-02-16T01:36:02.300Z,47.25
2019-02-16T01:37:02.294Z,47.38
2019-02-16T01:38:02.277Z,46.87
2019-02-16T01:39:02.266Z,47.15
2019-02-16T01:40:02.249Z,47.35
2019-02-16T01:41:02.177Z,47.27
2019-02-16T01:42:02.225Z,47.38
2019-02-16T01:43:02.223Z,47.05
2019-02-16T01:44:02.210Z,47.38
2019-02-16T01:45:02.205Z,47.17
2019-02-16T01:46:02.200Z,46.97
2019-02-16T01:47:02.207Z,47.17
2019-02-16T01:48:02.177Z,46.97
2019-02-16T01:49:02.164Z,47.38
2019-02-16T01:50:02.139Z,47.38
2019-02-16T01:51:02.179Z,47.07
2019-02-16T01:52:02.121Z,46.87
2019-02-16T01:53:02.134Z,47.07
2019-02-16T01:54:02.124Z,46.87
2019-02-16T01:55:02.084Z,47.38
2019-02-16T01:56:02.078Z,47.25
2019-02-16T01:57:02.111Z,47.25
2019-02-16T01:58:02.062Z,47.17
2019-02-16T01:59:02.035Z,47.67
2019-02-16T02:00:02.031Z,47.17
2019-02-16T02:01:02.017Z,47.47
2019-02-16T02:02:02.003Z,47.47
2019-02-16T02:03:02.034Z,47.07
2019-02-16T02:04:01.995Z,46.67
2019-02-16T02:05:01.969Z,46.77
2019-02-16T02:06:01.967Z,46.77
2019-02-16T02:07:01.974Z,46.67
2019-02-16T02:08:01.940Z,46.77
2019-02-16T02:09:01.937Z,46.57
2019-02-16T02:10:01.929Z,46.57
2019-02-16T02:11:01.907Z,46.47
2019-02-16T02:12:01.964Z,46.77
2019-02-16T02:13:01.879Z,46.77
2019-02-16T02:14:01.879Z,46.37
2019-02-16T02:15:01.872Z,46.67
2019-02-16T02:16:01.851Z,46.27
2019-02-16T02:17:01.839Z,46.17
2019-02-16T02:18:01.876Z,46.57
2019-02-16T02:19:01.818Z,46.17
2019-02-16T02:20:01.830Z,46.67
2019-02-16T02:21:01.809Z,46.37
2019-02-16T02:22:01.789Z,46.37
2019-02-16T02:23:01.772Z,46.17
2019-02-16T02:24:01.811Z,46.57
2019-02-16T02:25:01.752Z,46.37
2019-02-16T02:26:01.740Z,46.57
2019-02-16T02:27:01.732Z,46.47
2019-02-16T02:28:01.718Z,46.37
2019-02-16T02:29:01.715Z,46.67
2019-02-16T02:30:01.772Z,46.57
2019-02-16T02:31:01.681Z,45.87
2019-02-16T02:32:01.671Z,46.37
2019-02-16T02:33:01.667Z,46.27
2019-02-16T02:34:01.658Z,46.57
2019-02-16T02:35:01.653Z,46.37
2019-02-16T02:36:01.689Z,46.17
2019-02-16T02:37:01.627Z,46.17
2019-02-16T02:38:01.617Z,46.17
2019-02-16T02:39:01.604Z,46.17
2019-02-16T02:40:01.647Z,46.17
2019-02-16T02:41:01.579Z,46.07
2019-02-16T02:42:01.624Z,46.07
2019-02-16T02:43:01.551Z,45.87
2019-02-16T02:44:01.550Z,46.07
2019-02-16T02:45:01.534Z,46.07
2019-02-16T02:46:01.522Z,45.87
2019-02-16T02:47:01.517Z,45.87
2019-02-16T02:48:01.526Z,45.97
2019-02-16T02:49:01.493Z,46.17
2019-02-16T02:50:01.552Z,46.07
2019-02-16T02:51:01.471Z,45.87
2019-02-16T02:52:01.478Z,46.07
2019-02-16T02:53:01.468Z,45.97
2019-02-16T02:54:01.432Z,45.67
2019-02-16T02:55:01.470Z,45.77
2019-02-16T02:56:01.415Z,45.57
2019-02-16T02:57:01.408Z,45.57
2019-02-16T02:58:01.397Z,45.57
2019-02-16T02:59:01.386Z,45.67
2019-02-16T03:00:01.366Z,45.77
2019-02-16T03:01:01.404Z,45.97
2019-02-16T03:02:01.348Z,45.87
2019-02-16T03:03:01.338Z,45.57
2019-02-16T03:04:01.320Z,45.67
2019-02-16T03:05:01.299Z,45.77
2019-02-16T03:06:01.309Z,45.89
2019-02-16T03:07:01.334Z,45.67
2019-02-16T03:08:01.284Z,45.87
2019-02-16T03:09:01.281Z,45.97
2019-02-16T03:10:01.257Z,45.47
2019-02-16T03:11:01.240Z,45.37
2019-02-16T03:12:01.241Z,45.47
2019-02-16T03:13:01.255Z,45.39
2019-02-16T03:14:01.217Z,46.07
2019-02-16T03:15:01.197Z,45.69
2019-02-16T03:16:01.192Z,45.67
2019-02-16T03:17:01.182Z,45.69
2019-02-16T03:18:01.184Z,45.99
2019-02-16T03:19:01.200Z,45.39
2019-02-16T03:20:01.170Z,45.69
2019-02-16T03:21:01.136Z,45.87
2019-02-16T03:22:03.171Z,46.27
2019-02-16T03:23:01.111Z,45.59
2019-02-16T03:24:01.111Z,45.39
2019-02-16T03:25:01.129Z,46.19
2019-02-16T03:26:01.085Z,45.57
2019-02-16T03:27:01.070Z,45.37
2019-02-16T03:28:01.065Z,45.59
2019-02-16T03:29:01.066Z,45.59
2019-02-16T03:30:01.046Z,45.97
2019-02-16T03:31:01.120Z,45.97
2019-02-16T03:32:01.022Z,46.07
2019-02-16T03:33:01.010Z,45.99
2019-02-16T03:34:01.013Z,45.67
2019-02-16T03:35:00.990Z,45.57
2019-02-16T03:36:00.984Z,45.67
2019-02-16T03:37:01.007Z,45.67
2019-02-16T03:38:00.955Z,45.69
2019-02-16T03:39:00.950Z,45.59
2019-02-16T03:40:00.934Z,45.69
2019-02-16T03:41:00.921Z,45.57
2019-02-16T03:42:00.910Z,45.59
2019-02-16T03:43:00.927Z,45.49
2019-02-16T03:44:00.899Z,45.49
2019-02-16T03:45:00.910Z,45.09
2019-02-16T03:46:00.874Z,45.39
2019-02-16T03:47:00.857Z,45.39
2019-02-16T03:48:00.864Z,45.59
2019-02-16T03:49:00.872Z,45.59
2019-02-16T03:50:00.853Z,45.59
2019-02-16T03:51:00.811Z,45.49
2019-02-16T03:52:00.800Z,45.39
2019-02-16T03:53:00.788Z,45.39
2019-02-16T03:54:00.809Z,45.69
2019-02-16T03:55:00.779Z,45.18
2019-02-16T03:56:00.756Z,45.17
2019-02-16T03:57:00.751Z,45.39
2019-02-16T03:58:00.739Z,45.18
2019-02-16T03:59:00.768Z,45.39
2019-02-16T04:00:00.751Z,45.59
2019-02-16T04:01:00.725Z,45.69
2019-02-16T04:02:00.696Z,45.26
2019-02-16T04:03:00.682Z,45.59
2019-02-16T04:04:00.575Z,45.49
2019-02-16T04:05:00.699Z,45.49
2019-02-16T04:06:00.653Z,45.59
2019-02-16T04:07:00.545Z,45.49
2019-02-16T04:08:00.623Z,45.59
2019-02-16T04:09:00.622Z,45.59
2019-02-16T04:10:00.627Z,45.39
2019-02-16T04:11:00.627Z,45.39
2019-02-16T04:12:00.576Z,45.09
2019-02-16T04:13:00.605Z,45.18
2019-02-16T04:14:00.567Z,45.39
2019-02-16T04:15:00.608Z,45.47
2019-02-16T04:16:00.538Z,45.29
2019-02-16T04:17:00.529Z,45.18
2019-02-16T04:18:00.518Z,45.18
2019-02-16T04:19:00.509Z,45.18
2019-02-16T04:20:00.494Z,45.09
2019-02-16T04:21:00.543Z,44.89
2019-02-16T04:22:00.466Z,45.18
2019-02-16T04:23:00.457Z,44.79
2019-02-16T04:24:00.451Z,44.99
2019-02-16T04:25:00.447Z,44.79
2019-02-16T04:26:00.317Z,44.59
2019-02-16T04:27:00.345Z,44.99
2019-02-16T04:28:00.312Z,44.56
2019-02-16T04:29:00.398Z,44.59
2019-02-16T04:30:00.426Z,44.59
2019-02-16T04:31:00.421Z,44.48
2019-02-16T04:32:00.350Z,44.68
2019-02-16T04:33:00.344Z,44.48
2019-02-16T04:34:00.339Z,44.38
2019-02-16T04:35:00.511Z,44.59
2019-02-16T04:36:00.315Z,44.48
2019-02-16T04:37:00.329Z,44.48
2019-02-16T04:38:00.299Z,44.59
2019-02-16T04:39:00.288Z,44.59
2019-02-16T04:40:00.337Z,44.89
2019-02-16T04:41:00.285Z,44.68
2019-02-16T04:42:00.298Z,44.48
2019-02-16T04:43:00.238Z,44.59
2019-02-16T04:44:00.231Z,44.59
2019-02-16T04:45:00.254Z,44.68
2019-02-16T04:46:00.207Z,44.68
2019-02-16T04:47:00.203Z,44.68
2019-02-16T04:48:00.119Z,44.59
2019-02-16T04:49:00.193Z,44.28
2019-02-16T04:50:00.283Z,44.38
2019-02-16T04:51:00.169Z,44.59
2019-02-16T04:52:00.191Z,44.59
2019-02-16T04:53:00.130Z,44.48
2019-02-16T04:54:00.119Z,44.68
2019-02-16T04:55:00.169Z,44.48
2019-02-16T04:56:00.097Z,44.38
2019-02-16T04:57:00.081Z,44.38
2019-02-16T04:58:00.114Z,44.59
2019-02-16T04:59:00.070Z,44.59
2019-02-16T05:00:00.058Z,44.48
2019-02-16T05:01:00.049Z,44.68
2019-02-16T05:01:59.929Z,44.59
2019-02-16T05:03:00.025Z,44.68
2019-02-16T05:04:00.063Z,44.68
2019-02-16T05:05:00.008Z,44.59
2019-02-16T05:06:00.233Z,44.89
2019-02-16T05:06:59.993Z,44.59
2019-02-16T05:07:59.982Z,44.68
2019-02-16T05:08:59.962Z,44.79
2019-02-16T05:10:00.003Z,44.89
2019-02-16T05:10:59.947Z,44.89
2019-02-16T05:11:59.931Z,44.99
2019-02-16T05:12:59.907Z,45.18
2019-02-16T05:13:59.908Z,45.18
2019-02-16T05:14:59.920Z,44.99
2019-02-16T05:15:59.907Z,45.18
2019-02-16T05:16:59.876Z,44.99
2019-02-16T05:17:59.867Z,44.38
2019-02-16T05:18:59.894Z,44.91
2019-02-16T05:19:59.846Z,44.89
2019-02-16T05:20:59.835Z,44.18
2019-02-16T05:21:59.833Z,44.38
2019-02-16T05:22:59.819Z,44.38
2019-02-16T05:23:59.780Z,44.48
2019-02-16T05:24:59.820Z,44.68
2019-02-16T05:25:59.767Z,44.38
2019-02-16T05:26:59.760Z,44.59
2019-02-16T05:27:59.753Z,44.48
2019-02-16T05:28:59.775Z,44.68
2019-02-16T05:29:59.732Z,44.48
2019-02-16T05:30:59.768Z,44.59
2019-02-16T05:31:59.712Z,44.60
2019-02-16T05:32:59.701Z,44.60
2019-02-16T05:33:59.678Z,44.18
2019-02-16T05:34:59.671Z,44.48
2019-02-16T05:35:59.659Z,44.48
2019-02-16T05:36:59.716Z,44.40
2019-02-16T05:37:59.631Z,44.00
2019-02-16T05:38:59.625Z,44.48
2019-02-16T05:39:59.619Z,44.18
2019-02-16T05:40:59.612Z,44.08
2019-02-16T05:41:59.594Z,44.18
2019-02-16T05:42:59.627Z,43.98
2019-02-16T05:43:59.578Z,44.08
2019-02-16T05:44:59.562Z,44.38
2019-02-16T05:45:59.552Z,44.08
2019-02-16T05:46:59.545Z,44.08
2019-02-16T05:47:59.535Z,44.28
2019-02-16T05:48:59.560Z,44.40
2019-02-16T05:49:59.514Z,43.90
2019-02-16T05:50:59.502Z,43.68
2019-02-16T05:51:59.379Z,44.38
2019-02-16T05:52:59.362Z,44.08
2019-02-16T05:53:59.457Z,44.28
2019-02-16T05:54:59.484Z,43.78
2019-02-16T05:55:59.461Z,44.48
2019-02-16T05:56:59.430Z,43.78
2019-02-16T05:57:59.427Z,43.88
2019-02-16T05:58:59.404Z,44.00
2019-02-16T05:59:59.400Z,44.20
2019-02-16T06:00:59.436Z,43.78
2019-02-16T06:01:59.371Z,43.78
2019-02-16T06:02:59.367Z,43.98
2019-02-16T06:03:59.358Z,43.58
2019-02-16T06:04:59.342Z,44.00
2019-02-16T06:05:59.330Z,43.50
2019-02-16T06:06:59.362Z,43.80
2019-02-16T06:07:59.312Z,43.80
2019-02-16T06:08:59.299Z,43.68
2019-02-16T06:09:59.292Z,43.50
2019-02-16T06:10:59.280Z,43.40
2019-02-16T06:11:59.282Z,43.40
2019-02-16T06:12:59.312Z,43.68
2019-02-16T06:13:59.253Z,43.40
2019-02-16T06:14:59.227Z,43.40
2019-02-16T06:15:59.222Z,43.48
2019-02-16T06:16:59.212Z,43.70
2019-02-16T06:17:59.196Z,43.68
2019-02-16T06:19:00.040Z,43.98
2019-02-16T06:19:59.199Z,43.80
2019-02-16T06:20:59.165Z,44.08
2019-02-16T06:21:59.166Z,43.50
2019-02-16T06:23:04.272Z,43.60
2019-02-16T06:24:00.133Z,43.98
2019-02-16T06:24:59.166Z,43.70
2019-02-16T06:25:59.110Z,43.48
2019-02-16T06:26:59.011Z,43.68
2019-02-16T06:27:59.129Z,43.80
2019-02-16T06:28:58.972Z,43.78
2019-02-16T06:29:59.072Z,43.40
2019-02-16T06:30:59.054Z,43.50
2019-02-16T06:31:59.046Z,43.70
2019-02-16T06:32:58.946Z,43.68
2019-02-16T06:33:58.965Z,43.50
2019-02-16T06:34:58.911Z,43.30
2019-02-16T06:35:58.908Z,43.48
2019-02-16T06:36:58.900Z,43.70
2019-02-16T06:37:58.895Z,43.48
2019-02-16T06:38:58.868Z,43.68
2019-02-16T06:39:58.878Z,43.48
2019-02-16T06:40:58.849Z,43.38
2019-02-16T06:41:58.825Z,43.58
2019-02-16T06:42:58.824Z,43.48
2019-02-16T06:43:58.837Z,43.38
2019-02-16T06:44:58.817Z,43.98
2019-02-16T06:45:58.795Z,43.80
2019-02-16T06:46:58.787Z,44.18
2019-02-16T06:47:58.782Z,43.68
2019-02-16T06:48:58.880Z,44.31
2019-02-16T06:49:58.849Z,43.98
2019-02-16T06:50:58.739Z,44.18
2019-02-16T06:51:58.734Z,44.00
2019-02-16T06:52:58.711Z,44.08
2019-02-16T06:53:58.839Z,44.20
2019-02-16T06:54:58.787Z,44.60
2019-02-16T06:55:58.798Z,44.48
2019-02-16T06:56:58.772Z,44.48
2019-02-16T06:57:58.654Z,44.48
2019-02-16T06:58:58.649Z,44.48
2019-02-16T06:59:58.837Z,44.51
2019-02-16T07:00:58.738Z,44.48
2019-02-16T07:01:58.708Z,44.51
2019-02-16T07:02:58.602Z,44.38
2019-02-16T07:03:58.693Z,44.38
2019-02-16T07:04:58.678Z,45.09
2019-02-16T07:05:58.605Z,44.99
2019-02-16T07:06:58.656Z,44.28
2019-02-16T07:07:58.648Z,44.48
2019-02-16T07:08:58.646Z,42.97
2019-02-16T07:10:01.427Z,34.96
2019-02-16T07:10:58.632Z,41.49
2019-02-16T07:11:58.495Z,43.30
2019-02-16T07:12:58.507Z,43.80
2019-02-16T07:13:58.488Z,44.40
2019-02-16T07:14:58.464Z,43.70
2019-02-16T07:15:58.600Z,43.40
2019-02-16T07:16:58.551Z,44.32
2019-02-16T07:17:58.542Z,44.00
2019-02-16T07:18:58.543Z,43.82
2019-02-16T07:19:58.413Z,44.20
2019-02-16T07:20:58.467Z,44.00
2019-02-16T07:21:58.408Z,43.60
2019-02-16T07:22:58.490Z,44.20
2019-02-16T07:23:58.478Z,43.70
2019-02-16T07:24:58.375Z,43.60
2019-02-16T07:25:58.364Z,43.80
2019-02-16T07:26:58.390Z,43.50
2019-02-16T07:27:58.341Z,44.31
2019-02-16T07:28:58.334Z,44.51
2019-02-16T07:29:58.304Z,43.08
2019-02-16T07:30:58.312Z,43.20
2019-02-16T07:31:58.299Z,45.21
2019-02-16T07:32:58.413Z,44.91
2019-02-16T07:33:58.266Z,44.71
2019-02-16T07:34:58.268Z,45.18
2019-02-16T07:35:58.350Z,44.89
2019-02-16T07:36:58.382Z,32.24
2019-02-16T07:37:58.209Z,33.45
2019-02-16T07:38:58.240Z,41.91
2019-02-16T07:39:58.208Z,44.43
2019-02-16T07:40:58.189Z,45.63
2019-02-16T07:41:58.218Z,45.63
2019-02-16T07:42:58.163Z,45.63
2019-02-16T07:43:58.162Z,45.23
2019-02-16T07:44:58.140Z,45.03
2019-02-16T07:45:58.134Z,44.93
2019-02-16T07:46:58.116Z,45.13
2019-02-16T07:47:58.141Z,45.03
2019-02-16T07:48:58.114Z,45.01
2019-02-16T07:49:58.196Z,44.51
2019-02-16T07:50:58.063Z,44.51
2019-02-16T07:51:58.065Z,44.51
2019-02-16T07:52:58.061Z,44.40
2019-02-16T07:53:58.094Z,44.71
2019-02-16T07:54:58.045Z,44.18
2019-02-16T07:55:58.019Z,44.28
2019-02-16T07:56:58.028Z,44.48
2019-02-16T07:57:58.005Z,44.48
2019-02-16T07:58:58.008Z,44.38
2019-02-16T07:59:58.021Z,44.96
2019-02-16T08:00:57.989Z,44.16
2019-02-16T08:01:57.967Z,44.96
2019-02-16T08:02:57.955Z,44.87
2019-02-16T08:03:57.949Z,44.96
2019-02-16T08:04:57.960Z,44.96
2019-02-16T08:05:57.910Z,44.46
2019-02-16T08:06:58.013Z,44.56
2019-02-16T08:07:57.993Z,44.56
2019-02-16T08:08:57.981Z,44.54
2019-02-16T08:09:57.864Z,44.67
2019-02-16T08:10:57.902Z,44.44
2019-02-16T08:11:57.851Z,44.34
2019-02-16T08:12:57.850Z,44.44
2019-02-16T08:13:58.203Z,44.34
2019-02-16T08:14:57.827Z,44.44
2019-02-16T08:15:57.807Z,44.44
2019-02-16T08:16:57.816Z,44.24
2019-02-16T08:17:57.802Z,44.92
2019-02-16T08:18:57.765Z,44.82
2019-02-16T08:19:57.765Z,44.72
2019-02-16T08:20:57.745Z,44.72
2019-02-16T08:21:57.776Z,44.72
2019-02-16T08:22:57.728Z,44.62
2019-02-16T08:23:57.706Z,44.62
2019-02-16T08:24:57.710Z,44.72
2019-02-16T08:25:57.886Z,44.60
2019-02-16T08:26:57.687Z,44.52
2019-02-16T08:27:57.698Z,44.60
2019-02-16T08:28:57.667Z,44.50
2019-02-16T08:29:57.922Z,44.50
2019-02-16T08:30:57.650Z,44.32
2019-02-16T08:31:57.630Z,44.32
2019-02-16T08:32:57.678Z,44.40
2019-02-16T08:33:57.594Z,44.30
2019-02-16T08:34:57.587Z,44.60
2019-02-16T08:35:57.597Z,44.20
2019-02-16T08:36:57.596Z,44.50
2019-02-16T08:37:57.663Z,44.60
2019-02-16T08:38:57.674Z,44.48
2019-02-16T08:39:57.644Z,44.58
2019-02-16T08:40:57.622Z,44.68
2019-02-16T08:41:57.605Z,44.58
2019-02-16T08:42:57.617Z,44.78
2019-02-16T08:43:57.624Z,44.68
2019-02-16T08:44:57.577Z,44.78
2019-02-16T08:45:57.566Z,45.08
2019-02-16T08:46:57.459Z,44.76
2019-02-16T08:47:57.455Z,43.38
2019-02-16T08:48:57.445Z,44.28
2019-02-16T08:49:57.449Z,45.06
2019-02-16T08:50:57.413Z,44.46
2019-02-16T08:51:57.412Z,44.06
2019-02-16T08:52:57.390Z,44.46
2019-02-16T08:53:57.388Z,44.35
2019-02-16T08:54:57.415Z,44.26
2019-02-16T08:55:57.369Z,44.26
2019-02-16T08:56:57.348Z,44.16
2019-02-16T08:57:57.335Z,44.35
2019-02-16T08:58:57.340Z,44.76
2019-02-16T08:59:57.310Z,44.56
2019-02-16T09:00:57.334Z,44.13
2019-02-16T09:01:57.275Z,44.34
2019-02-16T09:02:57.290Z,45.04
2019-02-16T09:03:57.268Z,45.04
2019-02-16T09:04:57.248Z,45.14
2019-02-16T09:05:57.249Z,45.04
2019-02-16T09:06:57.692Z,44.93
2019-02-16T09:07:57.229Z,44.54
2019-02-16T09:08:57.209Z,44.74
2019-02-16T09:09:57.208Z,44.71
2019-02-16T09:10:57.191Z,44.24
2019-02-16T09:11:57.190Z,44.34
2019-02-16T09:12:57.305Z,44.13
2019-02-16T09:13:57.166Z,43.63
2019-02-16T09:14:57.238Z,43.43
2019-02-16T09:15:57.131Z,42.82
2019-02-16T09:16:57.222Z,42.93
2019-02-16T09:17:57.199Z,43.01
2019-02-16T09:18:57.135Z,42.43
2019-02-16T09:19:57.189Z,42.21
2019-02-16T09:20:57.179Z,42.21
2019-02-16T09:21:57.174Z,41.71
2019-02-16T09:22:57.159Z,41.82
2019-02-16T09:23:59.391Z,41.61
2019-02-16T09:24:57.137Z,41.02
2019-02-16T09:25:57.126Z,40.91
2019-02-16T09:26:57.116Z,41.41
2019-02-16T09:27:56.987Z,40.91
2019-02-16T09:28:56.998Z,40.41
2019-02-16T09:29:57.066Z,40.61
2019-02-16T09:30:56.975Z,40.22
2019-02-16T09:31:56.957Z,40.22
2019-02-16T09:32:56.944Z,39.41
2019-02-16T09:33:56.926Z,39.61
2019-02-16T09:34:56.926Z,40.11
2019-02-16T09:35:56.943Z,38.89
2019-02-16T09:36:56.910Z,39.22
2019-02-16T09:37:56.874Z,39.31
2019-02-16T09:38:56.885Z,39.00
2019-02-16T09:39:56.867Z,39.20
2019-02-16T09:40:56.900Z,39.11
2019-02-16T09:41:56.848Z,38.70
2019-02-16T09:42:56.884Z,38.51
2019-02-16T09:43:56.827Z,38.91
2019-02-16T09:44:56.920Z,38.89
2019-02-16T09:45:56.892Z,38.29
2019-02-16T09:46:56.926Z,38.29
2019-02-16T09:47:56.774Z,38.40
2019-02-16T09:48:56.763Z,38.49
2019-02-16T09:49:56.859Z,38.40
2019-02-16T09:50:56.837Z,38.70
2019-02-16T09:51:56.847Z,38.09
2019-02-16T09:52:56.864Z,37.70
2019-02-16T09:53:56.807Z,37.77
2019-02-16T09:54:56.802Z,37.38
2019-02-16T09:55:56.788Z,37.27
2019-02-16T09:56:56.790Z,37.27
2019-02-16T09:57:56.779Z,36.88
2019-02-16T09:58:56.802Z,36.47
2019-02-16T09:59:56.732Z,37.08
2019-02-16T10:00:56.724Z,37.38
2019-02-16T10:01:56.724Z,37.27
2019-02-16T10:02:56.719Z,37.38
2019-02-16T10:03:56.696Z,36.68
2019-02-16T10:04:56.728Z,37.18
2019-02-16T10:05:56.679Z,36.78
2019-02-16T10:06:56.669Z,36.78
2019-02-16T10:07:56.656Z,36.76
2019-02-16T10:08:56.650Z,36.76
2019-02-16T10:09:56.532Z,36.56
2019-02-16T10:10:56.573Z,36.36
2019-02-16T10:11:56.604Z,36.06
2019-02-16T10:12:56.599Z,36.46
2019-02-16T10:13:56.589Z,36.66
2019-02-16T10:14:56.483Z,36.16
2019-02-16T10:15:56.473Z,36.06
2019-02-16T10:16:56.504Z,36.04
2019-02-16T10:17:56.430Z,35.76
2019-02-16T10:18:56.424Z,35.85
2019-02-16T10:19:56.426Z,35.35
2019-02-16T10:20:56.416Z,35.44
2019-02-16T10:21:56.406Z,35.14
2019-02-16T10:22:56.541Z,35.05
2019-02-16T10:23:56.477Z,35.33
2019-02-16T10:24:56.466Z,35.03
2019-02-16T10:25:56.458Z,34.73
2019-02-16T10:26:56.449Z,34.73
2019-02-16T10:27:56.356Z,34.53
2019-02-16T10:28:56.406Z,35.03
2019-02-16T10:29:56.384Z,35.03
2019-02-16T10:30:56.395Z,34.93
2019-02-16T10:31:56.296Z,35.01
2019-02-16T10:32:56.400Z,34.81
2019-02-16T10:33:56.278Z,34.31
2019-02-16T10:34:56.320Z,34.81
2019-02-16T10:35:56.282Z,34.81
2019-02-16T10:36:56.249Z,34.80
2019-02-16T10:37:56.223Z,33.50
2019-02-16T10:38:56.658Z,34.09
2019-02-16T10:39:56.303Z,34.20
2019-02-16T10:40:56.326Z,32.98
2019-02-16T10:41:56.187Z,34.20
2019-02-16T10:42:56.262Z,33.18
2019-02-16T10:43:56.153Z,32.98
2019-02-16T10:44:56.152Z,33.78
2019-02-16T10:45:56.146Z,33.38
2019-02-16T10:46:56.190Z,33.38
2019-02-16T10:47:56.101Z,33.28
2019-02-16T10:48:56.112Z,33.28
2019-02-16T10:49:56.098Z,33.18
2019-02-16T10:50:56.784Z,33.68
2019-02-16T10:51:56.206Z,33.48
2019-02-16T10:52:56.126Z,33.07
2019-02-16T10:53:56.044Z,33.68
2019-02-16T10:54:56.044Z,33.37
2019-02-16T10:55:56.084Z,33.47
2019-02-16T10:56:56.059Z,32.65
2019-02-16T10:57:56.021Z,32.06
2019-02-16T10:58:56.035Z,32.26
2019-02-16T10:59:55.981Z,31.94
2019-02-16T11:00:56.078Z,32.04
2019-02-16T11:01:55.996Z,32.42
2019-02-16T11:02:55.993Z,32.23
2019-02-16T11:03:55.947Z,32.21
2019-02-16T11:04:56.898Z,25.85
2019-02-16T11:05:55.944Z,23.96
2019-02-16T11:06:55.920Z,25.14
2019-02-16T11:07:56.002Z,27.23
2019-02-16T11:08:55.994Z,27.62
2019-02-16T11:09:55.892Z,28.90
2019-02-16T11:10:55.916Z,29.39
2019-02-16T11:11:55.931Z,29.48
2019-02-16T11:12:55.965Z,29.38
2019-02-16T11:13:55.842Z,29.07
2019-02-16T11:14:55.825Z,29.27
2019-02-16T11:15:55.851Z,29.55
2019-02-16T11:16:55.900Z,29.34
2019-02-16T11:17:56.005Z,29.44
2019-02-16T11:18:55.805Z,29.43
2019-02-16T11:19:56.021Z,29.33
2019-02-16T11:20:55.770Z,29.33
2019-02-16T11:21:55.879Z,29.51
2019-02-16T11:22:55.773Z,29.39
2019-02-16T11:23:55.796Z,28.70
2019-02-16T11:24:55.722Z,29.28
2019-02-16T11:25:55.810Z,29.09
2019-02-16T11:26:55.809Z,28.18
2019-02-16T11:27:55.776Z,28.56
2019-02-16T11:28:55.812Z,28.17
2019-02-16T11:29:56.617Z,29.14
2019-02-16T11:30:55.727Z,27.86
2019-02-16T11:31:55.672Z,28.14
2019-02-16T11:32:55.673Z,28.05
2019-02-16T11:33:55.618Z,27.93
2019-02-16T11:34:55.628Z,27.73
2019-02-16T11:35:55.623Z,28.11
2019-02-16T11:36:55.692Z,27.72
2019-02-16T11:37:55.624Z,27.41
2019-02-16T11:38:55.666Z,28.00
2019-02-16T11:39:55.735Z,27.59
2019-02-16T11:40:55.648Z,27.50
2019-02-16T11:41:55.657Z,27.97
2019-02-16T11:42:55.569Z,27.87
2019-02-16T11:43:55.634Z,27.37
2019-02-16T11:44:55.609Z,26.98
2019-02-16T11:45:55.639Z,27.36
2019-02-16T11:46:55.597Z,27.16
2019-02-16T11:47:55.581Z,27.44
2019-02-16T11:48:55.595Z,26.85
2019-02-16T11:49:55.562Z,26.93
2019-02-16T11:50:55.567Z,26.25
2019-02-16T11:51:55.478Z,26.84
2019-02-16T11:52:55.550Z,27.14
2019-02-16T11:53:55.418Z,27.04
2019-02-16T11:54:55.523Z,26.15
2019-02-16T11:55:55.401Z,26.82
2019-02-16T11:56:55.464Z,27.14
2019-02-16T11:57:55.413Z,26.25
2019-02-16T11:58:55.453Z,26.82
2019-02-16T11:59:55.361Z,26.82
2019-02-16T12:00:55.458Z,26.73
2019-02-16T12:01:55.444Z,26.82
2019-02-16T12:02:55.432Z,26.92
2019-02-16T12:03:55.451Z,26.73
2019-02-16T12:04:55.400Z,26.34
2019-02-16T12:05:55.387Z,26.82
2019-02-16T12:06:55.380Z,26.43
2019-02-16T12:07:55.374Z,26.24
2019-02-16T12:08:55.360Z,26.32
2019-02-16T12:09:55.398Z,26.52
2019-02-16T12:10:55.326Z,26.51
2019-02-16T12:11:55.317Z,26.10
2019-02-16T12:12:55.313Z,25.42
2019-02-16T12:13:55.307Z,25.51
2019-02-16T12:14:55.295Z,25.61
2019-02-16T12:15:55.410Z,25.51
2019-02-16T12:16:55.285Z,25.50
2019-02-16T12:17:55.260Z,25.70
2019-02-16T12:18:55.252Z,25.39
2019-02-16T12:19:55.244Z,25.39
2019-02-16T12:20:55.233Z,25.29
2019-02-16T12:21:55.268Z,25.48
2019-02-16T12:22:55.215Z,25.10
2019-02-16T12:23:55.199Z,24.90
2019-02-16T12:25:05.056Z,25.29
2019-02-16T12:25:56.172Z,25.18
2019-02-16T12:26:55.163Z,25.38
2019-02-16T12:27:55.261Z,24.98
2019-02-16T12:28:55.143Z,25.38
2019-02-16T12:29:55.130Z,24.88
2019-02-16T12:30:55.113Z,25.48
2019-02-16T12:31:55.117Z,24.97
2019-02-16T12:32:55.106Z,24.97
2019-02-16T12:33:55.159Z,24.97
2019-02-16T12:34:55.084Z,25.37
2019-02-16T12:35:55.080Z,25.37
2019-02-16T12:36:55.064Z,24.98
2019-02-16T12:37:55.056Z,24.97
2019-02-16T12:39:04.315Z,25.17
2019-02-16T12:39:56.068Z,25.27
2019-02-16T12:40:55.017Z,24.87
2019-02-16T12:41:55.020Z,25.07
2019-02-16T12:42:55.005Z,25.17
2019-02-16T12:43:54.994Z,24.97
2019-02-16T12:44:54.986Z,24.96
2019-02-16T12:45:55.014Z,25.07
2019-02-16T12:46:54.959Z,24.77
2019-02-16T12:47:54.938Z,25.07
2019-02-16T12:48:54.945Z,25.17
2019-02-16T12:49:54.918Z,24.97
2019-02-16T12:50:54.951Z,24.87
2019-02-16T12:51:55.094Z,25.07